Time,TemperatureF,DewpointF,PressureIn,WindDirection,WindDirectionDegrees,WindSpeedMPH,WindSpeedGustMPH,Humidity,HourlyPrecipIn,Conditions,Clouds,dailyrainin,SolarRadiationWatts/m^2,SoftwareType,DateUTC
2013-06-27 00:22:00,51.0,48.0,-100.00,SW,216,0.0,0.0,90,0.00,,,0.13,0.000000,,2013-06-27 07:22:00,
2013-06-27 00:33:00,51.0,48.0,-100.00,SW,216,0.0,0.0,90,0.00,,,0.13,0.000000,,2013-06-27 07:33:00,
2013-06-27 00:42:00,51.0,48.0,-100.00,SW,216,0.0,0.0,90,0.00,,,0.13,0.000000,,2013-06-27 07:42:00,
2013-06-27 00:52:00,51.0,48.0,-100.00,SW,216,0.0,0.0,90,0.00,,,0.13,0.000000,,2013-06-27 07:52:00,
2013-06-27 01:22:00,50.0,47.0,-100.00,WSW,248,0.0,0.0,90,0.00,,,0.13,0.000000,,2013-06-27 08:22:00,
2013-06-27 01:34:00,50.0,47.0,-100.00,WSW,248,0.0,0.0,90,0.00,,,0.13,0.000000,,2013-06-27 08:34:00,
2013-06-27 01:43:00,50.0,47.0,-100.00,WSW,248,0.0,0.0,90,0.00,,,0.13,0.000000,,2013-06-27 08:43:00,
2013-06-27 01:52:00,50.0,47.0,-100.00,WSW,248,0.0,0.0,90,0.00,,,0.13,0.000000,,2013-06-27 08:52:00,
2013-06-27 02:34:00,46.0,44.0,-100.00,WNW,284,0.0,0.0,94,0.00,,,0.13,0.000000,,2013-06-27 09:34:00,
2013-06-27 02:43:00,46.0,44.0,-100.00,WNW,284,0.0,0.0,94,0.00,,,0.13,0.000000,,2013-06-27 09:43:00,
2013-06-27 02:53:00,46.0,44.0,-100.00,WNW,284,0.0,0.0,94,0.00,,,0.13,0.000000,,2013-06-27 09:53:00,
2013-06-27 03:22:00,45.0,44.0,-100.00,West,269,0.0,3.0,96,0.00,,,0.13,0.000000,,2013-06-27 10:22:00,
2013-06-27 03:32:00,45.0,44.0,-100.00,West,269,0.0,3.0,96,0.00,,,0.13,0.000000,,2013-06-27 10:32:00,
2013-06-27 03:43:00,45.0,44.0,-100.00,West,269,0.0,3.0,96,0.00,,,0.13,0.000000,,2013-06-27 10:43:00,
2013-06-27 03:54:00,45.0,44.0,-100.00,West,269,0.0,3.0,96,0.00,,,0.13,0.000000,,2013-06-27 10:54:00,
2013-06-27 04:21:00,44.0,43.0,-100.00,West,263,0.0,4.0,97,0.00,,,0.13,0.000000,,2013-06-27 11:21:00,
2013-06-27 04:33:00,44.0,43.0,-100.00,West,263,0.0,4.0,97,0.00,,,0.13,0.000000,,2013-06-27 11:33:00,
2013-06-27 04:43:00,44.0,43.0,-100.00,West,263,0.0,4.0,97,0.00,,,0.13,0.000000,,2013-06-27 11:43:00,
2013-06-27 04:52:00,44.0,43.0,-100.00,West,263,0.0,4.0,97,0.00,,,0.13,0.000000,,2013-06-27 11:52:00,
2013-06-27 05:22:00,43.0,42.0,-100.00,WNW,284,0.0,4.0,97,0.00,,,0.13,0.000000,,2013-06-27 12:22:00,
2013-06-27 05:34:00,43.0,42.0,-100.00,WNW,284,0.0,4.0,97,0.00,,,0.13,0.000000,,2013-06-27 12:34:00,
2013-06-27 05:42:00,43.0,42.0,-100.00,WNW,284,0.0,4.0,97,0.00,,,0.13,0.000000,,2013-06-27 12:42:00,
2013-06-27 06:34:00,43.0,42.0,-100.00,West,270,0.0,0.0,97,0.00,,,0.12,2.000000,,2013-06-27 13:34:00,
2013-06-27 06:43:00,43.0,42.0,-100.00,West,270,0.0,0.0,97,0.00,,,0.12,2.000000,,2013-06-27 13:43:00,
2013-06-27 06:52:00,43.0,42.0,-100.00,West,270,0.0,0.0,97,0.00,,,0.12,2.000000,,2013-06-27 13:52:00,
2013-06-27 07:22:00,47.0,46.0,-100.00,WNW,299,0.0,3.0,98,0.00,,,0.11,88.000000,,2013-06-27 14:22:00,
2013-06-27 07:33:00,47.0,46.0,-100.00,WNW,299,0.0,3.0,98,0.00,,,0.11,88.000000,,2013-06-27 14:33:00,
2013-06-27 07:43:00,47.0,46.0,-100.00,WNW,299,0.0,3.0,98,0.00,,,0.11,88.000000,,2013-06-27 14:43:00,
2013-06-27 07:52:00,47.0,46.0,-100.00,WNW,299,0.0,3.0,98,0.00,,,0.11,88.000000,,2013-06-27 14:52:00,
2013-06-27 08:22:00,54.0,53.0,-100.00,East,80,0.0,0.0,97,0.00,,,0.10,75.000000,,2013-06-27 15:22:00,
2013-06-27 08:33:00,54.0,53.0,-100.00,East,80,0.0,0.0,97,0.00,,,0.10,75.000000,,2013-06-27 15:33:00,
2013-06-27 08:42:00,54.0,53.0,-100.00,East,80,0.0,0.0,97,0.00,,,0.10,75.000000,,2013-06-27 15:42:00,
2013-06-27 08:52:00,54.0,53.0,-100.00,East,80,0.0,0.0,97,0.00,,,0.10,75.000000,,2013-06-27 15:52:00,
2013-06-27 09:53:00,64.0,50.0,-100.00,WNW,286,1.0,7.0,61,0.00,,,0.10,76.000000,,2013-06-27 16:53:00,
2013-06-27 10:33:00,65.0,48.0,-100.00,NNE,21,1.0,8.0,55,0.00,,,-99.99,318.000000,,2013-06-27 17:33:00,
2013-06-27 10:43:00,65.0,48.0,-100.00,NNE,21,1.0,8.0,55,0.00,,,-99.99,318.000000,,2013-06-27 17:43:00,
2013-06-27 10:53:00,65.0,48.0,-100.00,NNE,21,1.0,8.0,55,0.00,,,-99.99,318.000000,,2013-06-27 17:53:00,
2013-06-27 12:33:00,72.0,48.0,-100.00,North,4,1.0,8.0,42,0.00,,,0.02,908.000000,,2013-06-27 19:33:00,
2013-06-27 12:42:00,72.0,48.0,-100.00,North,4,1.0,8.0,42,0.00,,,0.02,908.000000,,2013-06-27 19:42:00,
2013-06-27 12:53:00,72.0,48.0,-100.00,North,4,1.0,8.0,42,0.00,,,0.02,908.000000,,2013-06-27 19:53:00,
2013-06-27 14:24:00,75.0,50.0,-100.00,NNE,33,0.0,14.0,41,-99.99,,,0.00,847.000000,,2013-06-27 21:24:00,
2013-06-27 14:34:00,75.0,50.0,-100.00,NNE,33,0.0,14.0,41,-99.99,,,0.00,847.000000,,2013-06-27 21:34:00,
2013-06-27 14:44:00,75.0,50.0,-100.00,NNE,33,0.0,14.0,41,-99.99,,,0.00,847.000000,,2013-06-27 21:44:00,
2013-06-27 14:53:00,75.0,50.0,-100.00,NNE,33,0.0,14.0,41,-99.99,,,0.00,847.000000,,2013-06-27 21:53:00,
2013-06-27 15:33:00,79.0,49.0,-100.00,NNW,338,0.0,9.0,35,0.00,,,0.00,960.000000,,2013-06-27 22:33:00,
2013-06-27 15:54:00,79.0,49.0,-100.00,NNW,338,0.0,9.0,35,0.00,,,0.00,960.000000,,2013-06-27 22:54:00,
2013-06-27 16:34:00,79.0,49.0,-100.00,North,359,1.0,8.0,35,-99.99,,,0.00,725.000000,,2013-06-27 23:34:00,
2013-06-27 16:43:00,79.0,49.0,-100.00,North,359,1.0,8.0,35,-99.99,,,0.00,725.000000,,2013-06-27 23:43:00,
2013-06-27 17:25:00,75.0,49.0,-100.00,SSE,162,0.0,8.0,40,0.00,,,0.00,471.000000,,2013-06-28 00:25:00,
2013-06-27 17:34:00,75.0,49.0,-100.00,SSE,162,0.0,8.0,40,0.00,,,0.00,471.000000,,2013-06-28 00:34:00,
2013-06-27 17:44:00,75.0,49.0,-100.00,SSE,162,0.0,8.0,40,0.00,,,0.00,471.000000,,2013-06-28 00:44:00,
2013-06-27 17:53:00,75.0,49.0,-100.00,SSE,162,0.0,8.0,40,0.00,,,0.00,471.000000,,2013-06-28 00:53:00,
2013-06-27 18:45:00,79.0,51.0,-100.00,WNW,300,0.0,6.0,38,0.00,,,0.00,398.000000,,2013-06-28 01:45:00,
2013-06-27 19:35:00,78.0,50.0,-100.00,ENE,76,0.0,7.0,37,-99.99,,,0.00,113.000000,,2013-06-28 02:35:00,
2013-06-27 19:46:00,78.0,50.0,-100.00,ENE,76,0.0,7.0,37,-99.99,,,0.00,113.000000,,2013-06-28 02:46:00,
2013-06-27 19:52:00,78.0,50.0,-100.00,ENE,76,0.0,7.0,37,-99.99,,,0.00,113.000000,,2013-06-28 02:52:00,
2013-06-27 20:53:00,65.0,52.0,-100.00,WNW,302,0.0,6.0,63,-99.99,,,0.00,29.000000,,2013-06-28 03:53:00,
2013-06-27 21:33:00,59.0,52.0,-100.00,WSW,256,0.0,4.0,79,0.00,,,0.00,6.000000,,2013-06-28 04:33:00,
2013-06-27 21:43:00,59.0,52.0,-100.00,WSW,256,0.0,4.0,79,0.00,,,0.00,6.000000,,2013-06-28 04:43:00,
2013-06-27 21:53:00,59.0,52.0,-100.00,WSW,256,0.0,4.0,79,0.00,,,0.00,6.000000,,2013-06-28 04:53:00,
2013-06-27 22:33:00,54.0,50.0,-100.00,West,280,0.0,5.0,86,0.00,,,0.00,0.000000,,2013-06-28 05:33:00,
2013-06-27 22:43:00,54.0,50.0,-100.00,West,280,0.0,5.0,86,0.00,,,0.00,0.000000,,2013-06-28 05:43:00,
2013-06-27 22:52:00,54.0,50.0,-100.00,West,280,0.0,5.0,86,0.00,,,0.00,0.000000,,2013-06-28 05:52:00,
2013-06-27 23:22:00,54.0,51.0,-100.00,WNW,282,0.0,5.0,88,0.00,,,0.00,0.000000,,2013-06-28 06:22:00,
2013-06-27 23:33:00,54.0,51.0,-100.00,WNW,282,0.0,5.0,88,0.00,,,0.00,0.000000,,2013-06-28 06:33:00,
2013-06-27 23:42:00,54.0,51.0,-100.00,WNW,282,0.0,5.0,88,0.00,,,0.00,0.000000,,2013-06-28 06:42:00,
2013-06-27 23:52:00,54.0,51.0,-100.00,WNW,282,0.0,5.0,88,0.00,,,0.00,0.000000,,2013-06-28 06:52:00,